sensor_id;sensor_type;location;lat;lon;timestamp;pressure;altitude;pressure_sealevel;temperature
65738;BMP280;52478;51.844;6.582;2024-01-15T00:01:37;99930.75;;;19.90
65738;BMP280;52478;51.844;6.582;2024-01-15T00:04:03;99928.00;;;19.90
65738;BMP280;52478;51.844;6.582;2024-01-15T00:06:30;99921.13;;;19.91
65738;BMP280;52478;51.844;6.582;2024-01-15T00:08:58;99918.34;;;19.91
65738;BMP280;52478;51.844;6.582;2024-01-15T00:11:24;99915.56;;;19.91
65738;BMP280;52478;51.844;6.582;2024-01-15T00:13:50;99910.78;;;19.92
65738;BMP280;52478;51.844;6.582;2024-01-15T00:16:17;99915.78;;;19.93
65738;BMP280;52478;51.844;6.582;2024-01-15T00:18:45;99913.00;;;19.93
65738;BMP280;52478;51.844;6.582;2024-01-15T00:21:11;99909.69;;;19.95
65738;BMP280;52478;51.844;6.582;2024-01-15T00:23:42;99902.09;;;19.95
65738;BMP280;52478;51.844;6.582;2024-01-15T00:26:09;99908.41;;;19.96
65738;BMP280;52478;51.844;6.582;2024-01-15T00:28:36;99901.59;;;19.97
65738;BMP280;52478;51.844;6.582;2024-01-15T00:31:03;99904.03;;;20.00
65738;BMP280;52478;51.844;6.582;2024-01-15T00:33:29;99897.19;;;20.01
65738;BMP280;52478;51.844;6.582;2024-01-15T00:35:57;99901.47;;;20.02
65738;BMP280;52478;51.844;6.582;2024-01-15T00:38:23;99902.97;;;20.03
65738;BMP280;52478;51.844;6.582;2024-01-15T00:40:50;99900.19;;;20.03
65738;BMP280;52478;51.844;6.582;2024-01-15T00:43:16;99900.19;;;20.03
65738;BMP280;52478;51.844;6.582;2024-01-15T00:45:44;99900.19;;;20.03
65738;BMP280;52478;51.844;6.582;2024-01-15T00:48:10;99895.69;;;20.00
65738;BMP280;52478;51.844;6.582;2024-01-15T00:50:37;99895.47;;;19.98
65738;BMP280;52478;51.844;6.582;2024-01-15T00:53:05;99884.94;;;19.97
65738;BMP280;52478;51.844;6.582;2024-01-15T00:55:32;99882.88;;;19.97
65738;BMP280;52478;51.844;6.582;2024-01-15T00:57:58;99893.78;;;19.95
65738;BMP280;52478;51.844;6.582;2024-01-15T01:00:25;99883.97;;;19.94
65738;BMP280;52478;51.844;6.582;2024-01-15T01:02:52;99883.72;;;19.92
65738;BMP280;52478;51.844;6.582;2024-01-15T01:05:18;99876.47;;;19.89
65738;BMP280;52478;51.844;6.582;2024-01-15T01:07:45;99874.97;;;19.88
65738;BMP280;52478;51.844;6.582;2024-01-15T01:10:13;99877.75;;;19.88
65738;BMP280;52478;51.844;6.582;2024-01-15T01:12:39;99875.50;;;19.87
65738;BMP280;52478;51.844;6.582;2024-01-15T01:15:06;99869.75;;;19.85
65738;BMP280;52478;51.844;6.582;2024-01-15T01:17:33;99860.28;;;19.80
65738;BMP280;52478;51.844;6.582;2024-01-15T01:19:59;99858.56;;;19.77
65738;BMP280;52478;51.844;6.582;2024-01-15T01:22:29;99853.00;;;19.77
65738;BMP280;52478;51.844;6.582;2024-01-15T01:24:55;99859.09;;;19.76
65738;BMP280;52478;51.844;6.582;2024-01-15T01:27:23;99855.16;;;19.71
65738;BMP280;52478;51.844;6.582;2024-01-15T01:29:50;99853.88;;;19.72
65738;BMP280;52478;51.844;6.582;2024-01-15T01:32:17;99852.69;;;19.68
65738;BMP280;52478;51.844;6.582;2024-01-15T01:34:43;99851.94;;;19.67
65738;BMP280;52478;51.844;6.582;2024-01-15T01:37:10;99850.41;;;19.66
65738;BMP280;52478;51.844;6.582;2024-01-15T01:39:38;99845.97;;;19.63
65738;BMP280;52478;51.844;6.582;2024-01-15T01:42:05;99847.97;;;19.63
65738;BMP280;52478;51.844;6.582;2024-01-15T01:44:32;99853.00;;;19.64
65738;BMP280;52478;51.844;6.582;2024-01-15T01:46:59;99848.50;;;19.61
65738;BMP280;52478;51.844;6.582;2024-01-15T01:49:27;99853.34;;;19.61
65738;BMP280;52478;51.844;6.582;2024-01-15T01:51:53;99856.81;;;19.61
65738;BMP280;52478;51.844;6.582;2024-01-15T01:54:23;99851.09;;;19.59
65738;BMP280;52478;51.844;6.582;2024-01-15T01:56:49;99851.84;;;19.60
65738;BMP280;52478;51.844;6.582;2024-01-15T01:59:17;99862.19;;;19.59
65738;BMP280;52478;51.844;6.582;2024-01-15T02:01:45;99856.22;;;19.55
65738;BMP280;52478;51.844;6.582;2024-01-15T02:04:12;99853.94;;;19.54
65738;BMP280;52478;51.844;6.582;2024-01-15T02:06:38;99860.59;;;19.51
65738;BMP280;52478;51.844;6.582;2024-01-15T02:09:05;99865.06;;;19.54
65738;BMP280;52478;51.844;6.582;2024-01-15T02:11:31;99875.97;;;19.52
65738;BMP280;52478;51.844;6.582;2024-01-15T02:13:58;99871.13;;;19.52
65738;BMP280;52478;51.844;6.582;2024-01-15T02:16:24;99857.25;;;19.52
65738;BMP280;52478;51.844;6.582;2024-01-15T02:18:52;99857.25;;;19.52
65738;BMP280;52478;51.844;6.582;2024-01-15T02:21:19;99864.31;;;19.53
65738;BMP280;52478;51.844;6.582;2024-01-15T02:23:47;99858.00;;;19.53
65738;BMP280;52478;51.844;6.582;2024-01-15T02:26:14;99866.88;;;19.51
65738;BMP280;52478;51.844;6.582;2024-01-15T02:28:41;99854.28;;;19.50
65738;BMP280;52478;51.844;6.582;2024-01-15T02:31:09;99857.56;;;19.49
65738;BMP280;52478;51.844;6.582;2024-01-15T02:33:36;99860.91;;;19.47
65738;BMP280;52478;51.844;6.582;2024-01-15T02:36:03;99860.91;;;19.47
65738;BMP280;52478;51.844;6.582;2024-01-15T02:38:29;99853.84;;;19.46
65738;BMP280;52478;51.844;6.582;2024-01-15T02:40:57;99852.34;;;19.45
65738;BMP280;52478;51.844;6.582;2024-01-15T02:43:24;99852.34;;;19.45
65738;BMP280;52478;51.844;6.582;2024-01-15T02:45:51;99866.75;;;19.44
65738;BMP280;52478;51.844;6.582;2024-01-15T02:48:17;99853.63;;;19.44
65738;BMP280;52478;51.844;6.582;2024-01-15T02:50:44;99860.47;;;19.43
65738;BMP280;52478;51.844;6.582;2024-01-15T02:53:10;99848.63;;;19.43
65738;BMP280;52478;51.844;6.582;2024-01-15T02:55:37;99853.41;;;19.42
65738;BMP280;52478;51.844;6.582;2024-01-15T02:58:05;99853.41;;;19.42
65738;BMP280;52478;51.844;6.582;2024-01-15T03:00:31;99853.94;;;19.41
65738;BMP280;52478;51.844;6.582;2024-01-15T03:02:58;99856.72;;;19.41
65738;BMP280;52478;51.844;6.582;2024-01-15T03:05:24;99857.28;;;19.39
65738;BMP280;52478;51.844;6.582;2024-01-15T03:07:50;99865.63;;;19.39
65738;BMP280;52478;51.844;6.582;2024-01-15T03:10:17;99868.38;;;19.39
65738;BMP280;52478;51.844;6.582;2024-01-15T03:12:43;99863.34;;;19.38
65738;BMP280;52478;51.844;6.582;2024-01-15T03:15:11;99857.03;;;19.37
65738;BMP280;52478;51.844;6.582;2024-01-15T03:17:38;99855.53;;;19.36
65738;BMP280;52478;51.844;6.582;2024-01-15T03:20:05;99858.31;;;19.36
65738;BMP280;52478;51.844;6.582;2024-01-15T03:22:32;99862.38;;;19.35
65738;BMP280;52478;51.844;6.582;2024-01-15T03:24:59;99852.56;;;19.34
65738;BMP280;52478;51.844;6.582;2024-01-15T03:27:25;99863.44;;;19.32
65738;BMP280;52478;51.844;6.582;2024-01-15T03:29:52;99864.19;;;19.33
65738;BMP280;52478;51.844;6.582;2024-01-15T03:32:19;99861.94;;;19.31
65738;BMP280;52478;51.844;6.582;2024-01-15T03:34:46;99860.47;;;19.30
65738;BMP280;52478;51.844;6.582;2024-01-15T03:37:13;99861.00;;;19.29
65738;BMP280;52478;51.844;6.582;2024-01-15T03:39:40;99853.41;;;19.29
65738;BMP280;52478;51.844;6.582;2024-01-15T03:42:06;99850.63;;;19.29
65738;BMP280;52478;51.844;6.582;2024-01-15T03:44:33;99843.59;;;19.28
65738;BMP280;52478;51.844;6.582;2024-01-15T03:46:59;99838.03;;;19.28
65738;BMP280;52478;51.844;6.582;2024-01-15T03:49:27;99842.09;;;19.27
65738;BMP280;52478;51.844;6.582;2024-01-15T03:51:54;99846.16;;;19.26
65738;BMP280;52478;51.844;6.582;2024-01-15T03:54:20;99829.53;;;19.26
65738;BMP280;52478;51.844;6.582;2024-01-15T03:56:47;99834.31;;;19.26
65738;BMP280;52478;51.844;6.582;2024-01-15T03:59:12;99839.84;;;19.26
65738;BMP280;52478;51.844;6.582;2024-01-15T04:01:39;99841.88;;;19.25
65738;BMP280;52478;51.844;6.582;2024-01-15T04:04:05;99839.09;;;19.25
65738;BMP280;52478;51.844;6.582;2024-01-15T04:06:33;99836.09;;;19.23
65738;BMP280;52478;51.844;6.582;2024-01-15T04:09:00;99824.25;;;19.23
65738;BMP280;52478;51.844;6.582;2024-01-15T04:11:26;99822.25;;;19.23
65738;BMP280;52478;51.844;6.582;2024-01-15T04:13:53;99829.28;;;19.24
65738;BMP280;52478;51.844;6.582;2024-01-15T04:16:19;99820.94;;;19.24
65738;BMP280;52478;51.844;6.582;2024-01-15T04:18:46;99825.00;;;19.23
65738;BMP280;52478;51.844;6.582;2024-01-15T04:21:12;99822.25;;;19.23
65738;BMP280;52478;51.844;6.582;2024-01-15T04:23:40;99815.41;;;19.24
65738;BMP280;52478;51.844;6.582;2024-01-15T04:26:06;99819.47;;;19.23
65738;BMP280;52478;51.844;6.582;2024-01-15T04:28:33;99813.16;;;19.23
65738;BMP280;52478;51.844;6.582;2024-01-15T04:30:59;99818.69;;;19.23
65738;BMP280;52478;51.844;6.582;2024-01-15T04:33:26;99807.59;;;19.23
65738;BMP280;52478;51.844;6.582;2024-01-15T04:35:52;99802.63;;;19.21
65738;BMP280;52478;51.844;6.582;2024-01-15T04:38:19;99799.84;;;19.21
65738;BMP280;52478;51.844;6.582;2024-01-15T04:40:47;99803.38;;;19.22
65738;BMP280;52478;51.844;6.582;2024-01-15T04:43:13;99794.31;;;19.21
65738;BMP280;52478;51.844;6.582;2024-01-15T04:45:40;99798.34;;;19.20
65738;BMP280;52478;51.844;6.582;2024-01-15T04:48:06;99791.53;;;19.21
65738;BMP280;52478;51.844;6.582;2024-01-15T04:50:33;99792.25;;;19.22
65738;BMP280;52478;51.844;6.582;2024-01-15T04:52:59;99801.31;;;19.22
65738;BMP280;52478;51.844;6.582;2024-01-15T04:55:26;99790.00;;;19.20
65738;BMP280;52478;51.844;6.582;2024-01-15T04:57:54;99799.84;;;19.21
65738;BMP280;52478;51.844;6.582;2024-01-15T05:00:20;99809.22;;;19.18
65738;BMP280;52478;51.844;6.582;2024-01-15T05:02:47;99805.69;;;19.18
65738;BMP280;52478;51.844;6.582;2024-01-15T05:05:13;99799.41;;;19.17
65738;BMP280;52478;51.844;6.582;2024-01-15T05:07:39;99804.97;;;19.17
65738;BMP280;52478;51.844;6.582;2024-01-15T05:10:07;99792.38;;;19.16
65738;BMP280;52478;51.844;6.582;2024-01-15T05:12:33;99792.38;;;19.16
65738;BMP280;52478;51.844;6.582;2024-01-15T05:15:01;99783.81;;;19.14
65738;BMP280;52478;51.844;6.582;2024-01-15T05:17:28;99790.84;;;19.15
65738;BMP280;52478;51.844;6.582;2024-01-15T05:19:54;99790.84;;;19.15
65738;BMP280;52478;51.844;6.582;2024-01-15T05:22:21;99787.91;;;19.13
65738;BMP280;52478;51.844;6.582;2024-01-15T05:24:49;99788.59;;;19.14
65738;BMP280;52478;51.844;6.582;2024-01-15T05:27:16;99778.81;;;19.13
65738;BMP280;52478;51.844;6.582;2024-01-15T05:29:43;99771.25;;;19.13
65738;BMP280;52478;51.844;6.582;2024-01-15T05:32:11;99785.13;;;19.13
65738;BMP280;52478;51.844;6.582;2024-01-15T05:34:37;99775.31;;;19.12
65738;BMP280;52478;51.844;6.582;2024-01-15T05:37:04;99773.78;;;19.11
65738;BMP280;52478;51.844;6.582;2024-01-15T05:39:30;99774.53;;;19.12
65738;BMP280;52478;51.844;6.582;2024-01-15T05:41:58;99771.00;;;19.11
65738;BMP280;52478;51.844;6.582;2024-01-15T05:44:25;99765.47;;;19.11
65738;BMP280;52478;51.844;6.582;2024-01-15T05:46:51;99766.00;;;19.10
65738;BMP280;52478;51.844;6.582;2024-01-15T05:49:25;99766.75;;;19.10
65738;BMP280;52478;51.844;6.582;2024-01-15T05:51:52;99757.13;;;19.11
65738;BMP280;52478;51.844;6.582;2024-01-15T05:54:18;99766.75;;;19.10
65738;BMP280;52478;51.844;6.582;2024-01-15T05:56:45;99763.44;;;19.12
65738;BMP280;52478;51.844;6.582;2024-01-15T05:59:12;99757.13;;;19.11
65738;BMP280;52478;51.844;6.582;2024-01-15T06:01:38;99755.91;;;19.12
65738;BMP280;52478;51.844;6.582;2024-01-15T06:04:05;99764.94;;;19.13
65738;BMP280;52478;51.844;6.582;2024-01-15T06:06:33;99765.69;;;19.13
65738;BMP280;52478;51.844;6.582;2024-01-15T06:08:59;99766.41;;;19.14
65738;BMP280;52478;51.844;6.582;2024-01-15T06:11:30;99765.91;;;19.15
65738;BMP280;52478;51.844;6.582;2024-01-15T06:13:57;99769.94;;;19.14
65738;BMP280;52478;51.844;6.582;2024-01-15T06:16:23;99768.66;;;19.15
65738;BMP280;52478;51.844;6.582;2024-01-15T06:18:50;99767.59;;;19.18
65738;BMP280;52478;51.844;6.582;2024-01-15T06:21:16;99762.81;;;19.19
65738;BMP280;52478;51.844;6.582;2024-01-15T06:23:44;99772.13;;;19.21
65738;BMP280;52478;51.844;6.582;2024-01-15T06:26:11;99773.56;;;19.22
65738;BMP280;52478;51.844;6.582;2024-01-15T06:28:38;99770.28;;;19.24
65738;BMP280;52478;51.844;6.582;2024-01-15T06:31:06;99776.56;;;19.24
65738;BMP280;52478;51.844;6.582;2024-01-15T06:33:32;99764.19;;;19.25
65738;BMP280;52478;51.844;6.582;2024-01-15T06:35:59;99759.94;;;19.24
65738;BMP280;52478;51.844;6.582;2024-01-15T06:38:25;99756.63;;;19.26
65738;BMP280;52478;51.844;6.582;2024-01-15T06:40:53;99760.69;;;19.25
65738;BMP280;52478;51.844;6.582;2024-01-15T06:43:20;99748.31;;;19.26
65738;BMP280;52478;51.844;6.582;2024-01-15T06:45:46;99754.63;;;19.26
65738;BMP280;52478;51.844;6.582;2024-01-15T06:48:13;99757.38;;;19.26
65738;BMP280;52478;51.844;6.582;2024-01-15T06:50:39;99763.47;;;19.25
65738;BMP280;52478;51.844;6.582;2024-01-15T06:53:06;99768.50;;;19.26
65738;BMP280;52478;51.844;6.582;2024-01-15T06:55:32;99775.50;;;19.27
65738;BMP280;52478;51.844;6.582;2024-01-15T06:58:00;99775.50;;;19.27
65738;BMP280;52478;51.844;6.582;2024-01-15T07:00:27;99772.72;;;19.27
65738;BMP280;52478;51.844;6.582;2024-01-15T07:02:54;99777.00;;;19.28
65738;BMP280;52478;51.844;6.582;2024-01-15T07:05:20;99772.94;;;19.29
65738;BMP280;52478;51.844;6.582;2024-01-15T07:07:47;99779.25;;;19.30
65738;BMP280;52478;51.844;6.582;2024-01-15T07:10:13;99766.66;;;19.29
65738;BMP280;52478;51.844;6.582;2024-01-15T07:12:42;99772.94;;;19.29
65738;BMP280;52478;51.844;6.582;2024-01-15T07:15:10;99771.69;;;19.30
65738;BMP280;52478;51.844;6.582;2024-01-15T07:17:36;99774.47;;;19.30
65738;BMP280;52478;51.844;6.582;2024-01-15T07:20:06;99778.72;;;19.31
65738;BMP280;52478;51.844;6.582;2024-01-15T07:22:33;99773.91;;;19.32
65738;BMP280;52478;51.844;6.582;2024-01-15T07:24:59;99773.16;;;19.31
65738;BMP280;52478;51.844;6.582;2024-01-15T07:27:26;99770.38;;;19.31
65738;BMP280;52478;51.844;6.582;2024-01-15T07:29:52;99777.44;;;19.32
65738;BMP280;52478;51.844;6.582;2024-01-15T07:32:20;99769.09;;;19.32
65738;BMP280;52478;51.844;6.582;2024-01-15T07:34:47;99769.09;;;19.32
65738;BMP280;52478;51.844;6.582;2024-01-15T07:37:13;99767.09;;;19.33
65738;BMP280;52478;51.844;6.582;2024-01-15T07:39:40;99756.72;;;19.33
65738;BMP280;52478;51.844;6.582;2024-01-15T07:42:06;99762.28;;;19.33
65738;BMP280;52478;51.844;6.582;2024-01-15T07:44:33;99751.19;;;19.33
65738;BMP280;52478;51.844;6.582;2024-01-15T07:46:59;99763.03;;;19.34
65738;BMP280;52478;51.844;6.582;2024-01-15T07:49:27;99766.53;;;19.34
65738;BMP280;52478;51.844;6.582;2024-01-15T07:51:53;99766.53;;;19.34
65738;BMP280;52478;51.844;6.582;2024-01-15T07:54:20;99774.88;;;19.34
65738;BMP280;52478;51.844;6.582;2024-01-15T07:56:53;99769.09;;;19.32
65738;BMP280;52478;51.844;6.582;2024-01-15T07:59:20;99773.38;;;19.33
65738;BMP280;52478;51.844;6.582;2024-01-15T08:01:46;99774.88;;;19.34
65738;BMP280;52478;51.844;6.582;2024-01-15T08:04:13;99779.69;;;19.34
65738;BMP280;52478;51.844;6.582;2024-01-15T08:06:41;99776.34;;;19.35
65738;BMP280;52478;51.844;6.582;2024-01-15T08:09:07;99768.59;;;19.34
65738;BMP280;52478;51.844;6.582;2024-01-15T08:11:34;99763.03;;;19.34
65738;BMP280;52478;51.844;6.582;2024-01-15T08:14:01;99769.31;;;19.34
65738;BMP280;52478;51.844;6.582;2024-01-15T08:16:27;99768.59;;;19.34
65738;BMP280;52478;51.844;6.582;2024-01-15T08:18:54;99771.53;;;19.36
65738;BMP280;52478;51.844;6.582;2024-01-15T08:21:20;99770.81;;;19.35
65738;BMP280;52478;51.844;6.582;2024-01-15T08:23:48;99770.06;;;19.35
65738;BMP280;52478;51.844;6.582;2024-01-15T08:26:15;99766.53;;;19.34
65738;BMP280;52478;51.844;6.582;2024-01-15T08:28:41;99772.84;;;19.35
65738;BMP280;52478;51.844;6.582;2024-01-15T08:31:08;99770.81;;;19.35
65738;BMP280;52478;51.844;6.582;2024-01-15T08:33:34;99772.31;;;19.36
65738;BMP280;52478;51.844;6.582;2024-01-15T08:36:01;99784.91;;;19.37
65738;BMP280;52478;51.844;6.582;2024-01-15T08:38:28;99779.34;;;19.37
65738;BMP280;52478;51.844;6.582;2024-01-15T08:40:55;99777.34;;;19.38
65738;BMP280;52478;51.844;6.582;2024-01-15T08:43:24;99769.75;;;19.38
65738;BMP280;52478;51.844;6.582;2024-01-15T08:45:50;99768.25;;;19.37
65738;BMP280;52478;51.844;6.582;2024-01-15T08:48:17;99764.19;;;19.38
65738;BMP280;52478;51.844;6.582;2024-01-15T08:50:43;99771.78;;;19.38
65738;BMP280;52478;51.844;6.582;2024-01-15T08:53:11;99780.13;;;19.38
65738;BMP280;52478;51.844;6.582;2024-01-15T08:55:37;99780.84;;;19.38
65738;BMP280;52478;51.844;6.582;2024-01-15T08:58:05;99785.66;;;19.38
65738;BMP280;52478;51.844;6.582;2024-01-15T09:00:32;99780.84;;;19.38
65738;BMP280;52478;51.844;6.582;2024-01-15T09:02:58;99794.72;;;19.38
65738;BMP280;52478;51.844;6.582;2024-01-15T09:05:25;99789.69;;;19.37
65738;BMP280;52478;51.844;6.582;2024-01-15T09:07:52;99786.41;;;19.38
65738;BMP280;52478;51.844;6.582;2024-01-15T09:10:18;99780.84;;;19.38
65738;BMP280;52478;51.844;6.582;2024-01-15T09:12:45;99780.84;;;19.38
65738;BMP280;52478;51.844;6.582;2024-01-15T09:15:13;99778.06;;;19.38
65738;BMP280;52478;51.844;6.582;2024-01-15T09:17:39;99775.28;;;19.38
65738;BMP280;52478;51.844;6.582;2024-01-15T09:20:07;99766.97;;;19.38
65738;BMP280;52478;51.844;6.582;2024-01-15T09:22:34;99771.28;;;19.39
65738;BMP280;52478;51.844;6.582;2024-01-15T09:25:00;99776.81;;;19.39
65738;BMP280;52478;51.844;6.582;2024-01-15T09:27:27;99778.28;;;19.40
65738;BMP280;52478;51.844;6.582;2024-01-15T09:29:53;99789.38;;;19.40
65738;BMP280;52478;51.844;6.582;2024-01-15T09:32:21;99779.78;;;19.41
65738;BMP280;52478;51.844;6.582;2024-01-15T09:34:48;99784.56;;;19.41
65738;BMP280;52478;51.844;6.582;2024-01-15T09:37:14;99782.56;;;19.41
65738;BMP280;52478;51.844;6.582;2024-01-15T09:39:41;99779.78;;;19.41
65738;BMP280;52478;51.844;6.582;2024-01-15T09:42:07;99779.00;;;19.41
65738;BMP280;52478;51.844;6.582;2024-01-15T09:44:34;99785.31;;;19.41
65738;BMP280;52478;51.844;6.582;2024-01-15T09:47:01;99790.88;;;19.41
65738;BMP280;52478;51.844;6.582;2024-01-15T09:49:29;99790.13;;;19.41
65738;BMP280;52478;51.844;6.582;2024-01-15T09:51:57;99786.81;;;19.42
65738;BMP280;52478;51.844;6.582;2024-01-15T09:54:24;99787.59;;;19.43
65738;BMP280;52478;51.844;6.582;2024-01-15T09:56:51;99793.88;;;19.43
65738;BMP280;52478;51.844;6.582;2024-01-15T09:59:18;99793.88;;;19.43
65738;BMP280;52478;51.844;6.582;2024-01-15T10:01:45;99788.00;;;19.47
65738;BMP280;52478;51.844;6.582;2024-01-15T10:04:13;99785.97;;;19.47
65738;BMP280;52478;51.844;6.582;2024-01-15T10:06:43;99776.56;;;19.50
65738;BMP280;52478;51.844;6.582;2024-01-15T10:09:12;99790.63;;;19.52
65738;BMP280;52478;51.844;6.582;2024-01-15T10:11:39;99793.66;;;19.54
65738;BMP280;52478;51.844;6.582;2024-01-15T10:14:07;99779.00;;;19.54
65738;BMP280;52478;51.844;6.582;2024-01-15T10:16:33;99785.84;;;19.53
65738;BMP280;52478;51.844;6.582;2024-01-15T10:19:00;99785.09;;;19.52
65738;BMP280;52478;51.844;6.582;2024-01-15T10:21:26;99783.06;;;19.53
65738;BMP280;52478;51.844;6.582;2024-01-15T10:23:54;99775.50;;;19.53
65738;BMP280;52478;51.844;6.582;2024-01-15T10:26:24;99783.81;;;19.53
65738;BMP280;52478;51.844;6.582;2024-01-15T10:28:51;99794.59;;;19.57
65738;BMP280;52478;51.844;6.582;2024-01-15T10:31:18;99785.97;;;19.60
65738;BMP280;52478;51.844;6.582;2024-01-15T10:33:47;99785.97;;;19.60
65738;BMP280;52478;51.844;6.582;2024-01-15T10:36:13;99773.38;;;19.59
65738;BMP280;52478;51.844;6.582;2024-01-15T10:38:40;99771.00;;;19.63
65738;BMP280;52478;51.844;6.582;2024-01-15T10:41:08;99758.81;;;19.66
65738;BMP280;52478;51.844;6.582;2024-01-15T10:43:34;99766.63;;;19.68
65738;BMP280;52478;51.844;6.582;2024-01-15T10:46:01;99771.31;;;19.73
65738;BMP280;52478;51.844;6.582;2024-01-15T10:48:28;99770.56;;;19.72
65738;BMP280;52478;51.844;6.582;2024-01-15T10:50:56;99777.63;;;19.73
65738;BMP280;52478;51.844;6.582;2024-01-15T10:53:23;99778.56;;;19.76
65738;BMP280;52478;51.844;6.582;2024-01-15T10:55:50;99774.84;;;19.73
65738;BMP280;52478;51.844;6.582;2024-01-15T10:58:20;99765.75;;;19.73
65738;BMP280;52478;51.844;6.582;2024-01-15T11:00:47;99776.31;;;19.74
65738;BMP280;52478;51.844;6.582;2024-01-15T11:03:14;99781.88;;;19.74
65738;BMP280;52478;51.844;6.582;2024-01-15T11:05:42;99782.09;;;19.76
65738;BMP280;52478;51.844;6.582;2024-01-15T11:08:09;99789.16;;;19.77
65738;BMP280;52478;51.844;6.582;2024-01-15T11:10:41;99782.09;;;19.76
65738;BMP280;52478;51.844;6.582;2024-01-15T11:13:08;99771.00;;;19.76
65738;BMP280;52478;51.844;6.582;2024-01-15T11:15:58;99791.94;;;19.77
65738;BMP280;52478;51.844;6.582;2024-01-15T11:18:27;99785.63;;;19.77
65738;BMP280;52478;51.844;6.582;2024-01-15T11:21:22;99789.16;;;19.77
65738;BMP280;52478;51.844;6.582;2024-01-15T11:23:51;99778.34;;;19.74
65738;BMP280;52478;51.844;6.582;2024-01-15T11:26:34;99790.00;;;19.72
65738;BMP280;52478;51.844;6.582;2024-01-15T11:29:03;99784.63;;;19.74
65738;BMP280;52478;51.844;6.582;2024-01-15T11:31:58;99788.91;;;19.75
65738;BMP280;52478;51.844;6.582;2024-01-15T11:34:54;99782.28;;;19.78
65738;BMP280;52478;51.844;6.582;2024-01-15T11:37:23;99782.53;;;19.80
65738;BMP280;52478;51.844;6.582;2024-01-15T11:39:52;99771.19;;;19.78
65738;BMP280;52478;51.844;6.582;2024-01-15T11:42:20;99780.81;;;19.77
65738;BMP280;52478;51.844;6.582;2024-01-15T11:44:47;99790.44;;;19.76
65738;BMP280;52478;51.844;6.582;2024-01-15T11:47:22;99780.59;;;19.75
65738;BMP280;52478;51.844;6.582;2024-01-15T11:49:59;99771.53;;;19.75
65738;BMP280;52478;51.844;6.582;2024-01-15T11:52:32;99758.38;;;19.75
65738;BMP280;52478;51.844;6.582;2024-01-15T11:55:01;99771.00;;;19.76
65738;BMP280;52478;51.844;6.582;2024-01-15T11:57:35;99764.69;;;19.76
65738;BMP280;52478;51.844;6.582;2024-01-15T12:00:03;99765.88;;;19.80
65738;BMP280;52478;51.844;6.582;2024-01-15T12:02:31;99765.19;;;19.87
65738;BMP280;52478;51.844;6.582;2024-01-15T12:04:57;99766.25;;;19.84
65738;BMP280;52478;51.844;6.582;2024-01-15T12:07:24;99760.69;;;19.84
65738;BMP280;52478;51.844;6.582;2024-01-15T12:09:50;99757.91;;;19.97
65738;BMP280;52478;51.844;6.582;2024-01-15T12:12:22;99766.56;;;19.94
65738;BMP280;52478;51.844;6.582;2024-01-15T12:14:50;99768.16;;;19.89
65738;BMP280;52478;51.844;6.582;2024-01-15T12:17:16;99766.69;;;19.88
65738;BMP280;52478;51.844;6.582;2024-01-15T12:19:44;99768.50;;;19.86
65738;BMP280;52478;51.844;6.582;2024-01-15T12:22:11;99775.53;;;19.87
65738;BMP280;52478;51.844;6.582;2024-01-15T12:24:37;99783.34;;;19.88
65738;BMP280;52478;51.844;6.582;2024-01-15T12:27:04;99773.06;;;19.96
65738;BMP280;52478;51.844;6.582;2024-01-15T12:29:31;99786.78;;;19.94
65738;BMP280;52478;51.844;6.582;2024-01-15T12:31:57;99790.50;;;19.97
65738;BMP280;52478;51.844;6.582;2024-01-15T12:34:24;99784.19;;;19.96
65738;BMP280;52478;51.844;6.582;2024-01-15T12:36:53;99794.13;;;19.92
65738;BMP280;52478;51.844;6.582;2024-01-15T12:39:20;99791.16;;;19.90
65738;BMP280;52478;51.844;6.582;2024-01-15T12:41:47;99794.44;;;19.88
65738;BMP280;52478;51.844;6.582;2024-01-15T12:44:13;99792.94;;;19.87
65738;BMP280;52478;51.844;6.582;2024-01-15T12:46:40;99807.38;;;19.86
65738;BMP280;52478;51.844;6.582;2024-01-15T12:49:07;99806.66;;;19.85
65738;BMP280;52478;51.844;6.582;2024-01-15T12:51:34;99802.16;;;19.82
65738;BMP280;52478;51.844;6.582;2024-01-15T12:54:02;99800.13;;;19.83
65738;BMP280;52478;51.844;6.582;2024-01-15T12:56:29;99801.41;;;19.82
65738;BMP280;52478;51.844;6.582;2024-01-15T12:58:56;99796.59;;;19.82
65738;BMP280;52478;51.844;6.582;2024-01-15T13:01:22;99798.63;;;19.82
65738;BMP280;52478;51.844;6.582;2024-01-15T13:03:49;99810.28;;;19.80
65738;BMP280;52478;51.844;6.582;2024-01-15T13:06:15;99821.41;;;19.80
65738;BMP280;52478;51.844;6.582;2024-01-15T13:08:42;99831.75;;;19.80
65738;BMP280;52478;51.844;6.582;2024-01-15T13:11:09;99829.47;;;19.78
65738;BMP280;52478;51.844;6.582;2024-01-15T13:13:36;99835.81;;;19.79
65738;BMP280;52478;51.844;6.582;2024-01-15T13:16:03;99836.53;;;19.79
65738;BMP280;52478;51.844;6.582;2024-01-15T13:18:30;99839.31;;;19.79
65738;BMP280;52478;51.844;6.582;2024-01-15T13:20:56;99823.16;;;19.78
65738;BMP280;52478;51.844;6.582;2024-01-15T13:23:23;99824.69;;;19.79
65738;BMP280;52478;51.844;6.582;2024-01-15T13:25:49;99823.94;;;19.78
65738;BMP280;52478;51.844;6.582;2024-01-15T13:28:17;99826.72;;;19.78
65738;BMP280;52478;51.844;6.582;2024-01-15T13:30:44;99823.94;;;19.78
65738;BMP280;52478;51.844;6.582;2024-01-15T13:33:10;99824.69;;;19.79
65738;BMP280;52478;51.844;6.582;2024-01-15T13:35:37;99830.25;;;19.79
65738;BMP280;52478;51.844;6.582;2024-01-15T13:38:03;99842.75;;;19.85
65738;BMP280;52478;51.844;6.582;2024-01-15T13:40:30;99852.25;;;19.90
65738;BMP280;52478;51.844;6.582;2024-01-15T13:42:56;99847.88;;;19.94
65738;BMP280;52478;51.844;6.582;2024-01-15T13:45:24;99859.16;;;19.96
65738;BMP280;52478;51.844;6.582;2024-01-15T13:47:51;99855.31;;;19.99
65738;BMP280;52478;51.844;6.582;2024-01-15T13:50:17;99856.81;;;20.00
65738;BMP280;52478;51.844;6.582;2024-01-15T13:52:44;99859.06;;;20.02
65738;BMP280;52478;51.844;6.582;2024-01-15T13:55:11;99853.50;;;20.02
65738;BMP280;52478;51.844;6.582;2024-01-15T13:57:37;99855.75;;;20.03
65738;BMP280;52478;51.844;6.582;2024-01-15T14:00:05;99854.25;;;20.02
65738;BMP280;52478;51.844;6.582;2024-01-15T14:02:38;99857.34;;;19.99
65738;BMP280;52478;51.844;6.582;2024-01-15T14:05:04;99858.41;;;19.96
65738;BMP280;52478;51.844;6.582;2024-01-15T14:07:31;99860.44;;;19.95
65738;BMP280;52478;51.844;6.582;2024-01-15T14:09:58;99854.13;;;19.95